createdAt,value
2018-08-07T00:01:57.068Z,21.43
2018-08-07T00:04:24.702Z,23.03
2018-08-07T00:06:52.320Z,22.30
2018-08-07T00:09:19.969Z,22.00
2018-08-07T00:11:47.583Z,23.20
2018-08-07T00:14:15.205Z,22.60
2018-08-07T00:16:42.815Z,22.70
2018-08-07T00:19:10.432Z,22.40
2018-08-07T00:21:38.022Z,22.37
2018-08-07T00:24:05.687Z,23.07
2018-08-07T00:26:33.224Z,22.80
2018-08-07T00:29:00.919Z,21.20
2018-08-07T00:31:28.485Z,22.60
2018-08-07T00:33:56.155Z,21.83
2018-08-07T00:36:23.763Z,22.53
2018-08-07T00:38:51.464Z,21.60
2018-08-07T00:41:19.174Z,20.70
2018-08-07T00:43:46.757Z,22.90
2018-08-07T00:46:14.445Z,23.10
2018-08-07T00:48:42.137Z,21.33
2018-08-07T00:51:09.741Z,22.30
2018-08-07T00:53:37.300Z,22.23
2018-08-07T00:56:04.973Z,23.20
2018-08-07T00:58:32.768Z,22.17
2018-08-07T01:01:00.390Z,23.77
2018-08-07T01:03:27.977Z,21.70
2018-08-07T01:05:55.612Z,22.70
2018-08-07T01:08:23.205Z,22.50
2018-08-07T01:10:50.760Z,24.70
2018-08-07T01:13:18.336Z,22.10
2018-08-07T01:15:46.002Z,25.50
2018-08-07T01:18:13.620Z,23.77
2018-08-07T01:20:41.219Z,23.40
2018-08-07T01:23:08.857Z,23.83
2018-08-07T01:25:36.505Z,23.40
2018-08-07T01:28:04.086Z,23.30
2018-08-07T01:30:31.715Z,23.03
2018-08-07T01:32:59.426Z,23.27
2018-08-07T01:35:27.607Z,24.10
2018-08-07T01:37:55.221Z,25.30
2018-08-07T01:40:22.859Z,23.90
2018-08-07T01:42:50.565Z,23.40
2018-08-07T01:45:18.138Z,24.20
2018-08-07T01:47:45.728Z,22.80
2018-08-07T01:50:13.865Z,24.97
2018-08-07T01:52:41.443Z,24.10
2018-08-07T01:55:10.112Z,23.87
2018-08-07T01:57:37.958Z,24.10
2018-08-07T02:00:07.526Z,23.50
2018-08-07T02:02:35.252Z,24.67
2018-08-07T02:05:02.805Z,23.90
2018-08-07T02:07:30.389Z,23.90
2018-08-07T02:09:57.956Z,24.00
2018-08-07T02:12:25.560Z,24.47
2018-08-07T02:14:53.181Z,25.53
2018-08-07T02:17:20.738Z,24.50
2018-08-07T02:19:48.292Z,26.83
2018-08-07T02:22:15.952Z,24.67
2018-08-07T02:24:43.605Z,23.30
2018-08-07T02:27:11.177Z,23.30
2018-08-07T02:29:38.732Z,25.17
2018-08-07T02:32:06.271Z,24.33
2018-08-07T02:34:33.851Z,24.67
2018-08-07T02:37:01.445Z,24.17
2018-08-07T02:39:29.078Z,25.07
2018-08-07T02:41:56.638Z,22.50
2018-08-07T02:44:24.232Z,22.53
2018-08-07T02:46:51.776Z,24.03
2018-08-07T02:49:19.384Z,23.30
2018-08-07T02:51:46.980Z,22.93
2018-08-07T02:54:14.538Z,23.53
2018-08-07T02:56:42.116Z,23.80
2018-08-07T02:59:09.702Z,25.00
2018-08-07T03:01:37.253Z,24.40
2018-08-07T03:04:04.837Z,24.70
2018-08-07T03:06:32.389Z,25.50
2018-08-07T03:09:00.016Z,25.17
2018-08-07T03:11:27.656Z,25.07
2018-08-07T03:13:55.293Z,24.80
2018-08-07T03:16:22.903Z,24.70
2018-08-07T03:18:50.474Z,25.17
2018-08-07T03:21:18.084Z,25.20
2018-08-07T03:23:45.685Z,25.67
2018-08-07T03:26:13.313Z,24.93
2018-08-07T03:28:40.834Z,26.33
2018-08-07T03:31:08.439Z,26.30
2018-08-07T03:33:35.977Z,23.07
2018-08-07T03:36:03.676Z,26.67
2018-08-07T03:38:31.236Z,25.20
2018-08-07T03:40:58.801Z,25.97
2018-08-07T03:43:26.373Z,25.67
2018-08-07T03:45:53.991Z,26.00
2018-08-07T03:48:21.589Z,25.70
2018-08-07T03:50:49.137Z,26.73
2018-08-07T03:53:16.713Z,26.60
2018-08-07T03:55:44.253Z,25.53
2018-08-07T03:58:11.816Z,27.83
2018-08-07T04:00:44.740Z,26.13
2018-08-07T04:03:12.369Z,27.70
2018-08-07T04:05:39.932Z,27.00
2018-08-07T04:08:07.525Z,25.83
2018-08-07T04:10:35.154Z,27.83
2018-08-07T04:13:02.675Z,26.77
2018-08-07T04:15:30.246Z,25.03
2018-08-07T04:17:57.806Z,26.30
2018-08-07T04:20:25.482Z,25.10
2018-08-07T04:22:53.062Z,28.20
2018-08-07T04:25:20.729Z,26.60
2018-08-07T04:27:48.357Z,25.40
2018-08-07T04:30:19.845Z,25.40
2018-08-07T04:32:47.581Z,25.00
2018-08-07T04:35:15.982Z,25.63
2018-08-07T04:37:44.149Z,23.53
2018-08-07T04:40:11.770Z,23.10
2018-08-07T04:42:40.180Z,25.93
2018-08-07T04:45:10.302Z,24.70
2018-08-07T04:47:37.898Z,24.93
2018-08-07T04:50:05.933Z,26.60
2018-08-07T04:52:33.480Z,27.07
2018-08-07T04:55:01.060Z,25.57
2018-08-07T04:57:28.680Z,27.40
2018-08-07T04:59:56.262Z,26.00
2018-08-07T05:02:23.854Z,26.73
2018-08-07T05:04:51.417Z,25.77
2018-08-07T05:07:18.980Z,28.03
2018-08-07T05:09:46.598Z,28.80
2018-08-07T05:12:14.204Z,28.57
2018-08-07T05:14:41.784Z,27.63
2018-08-07T05:17:09.397Z,28.10
2018-08-07T05:19:36.973Z,27.57
2018-08-07T05:22:04.629Z,26.90
2018-08-07T05:24:32.166Z,27.80
2018-08-07T05:26:59.776Z,28.10
2018-08-07T05:29:27.330Z,29.83
2018-08-07T05:31:54.901Z,27.90
2018-08-07T05:34:22.469Z,28.33
2018-08-07T05:36:50.111Z,28.10
2018-08-07T05:39:17.773Z,26.90
2018-08-07T05:41:45.399Z,27.00
2018-08-07T05:44:13.098Z,27.17
2018-08-07T05:46:40.666Z,28.10
2018-08-07T05:49:08.280Z,27.37
2018-08-07T05:51:35.877Z,28.50
2018-08-07T05:54:03.540Z,26.83
2018-08-07T05:56:31.168Z,27.70
2018-08-07T05:58:58.717Z,27.33
2018-08-07T06:01:26.329Z,28.07
2018-08-07T06:03:53.973Z,27.53
2018-08-07T06:06:21.602Z,28.53
2018-08-07T06:08:49.219Z,28.03
2018-08-07T06:11:16.826Z,27.37
2018-08-07T06:13:44.467Z,27.93
2018-08-07T06:16:12.030Z,26.00
2018-08-07T06:18:39.635Z,24.83
2018-08-07T06:21:07.220Z,25.83
2018-08-07T06:23:34.764Z,25.50
2018-08-07T06:26:02.371Z,26.03
2018-08-07T06:28:29.943Z,23.93
2018-08-07T06:30:57.517Z,25.57
2018-08-07T06:33:25.143Z,25.20
2018-08-07T06:35:52.753Z,25.57
2018-08-07T06:38:20.451Z,25.20
2018-08-07T06:40:48.012Z,26.20
2018-08-07T06:43:15.620Z,25.50
2018-08-07T06:45:43.241Z,25.07
2018-08-07T06:48:10.902Z,24.80
2018-08-07T06:50:38.563Z,24.37
2018-08-07T06:53:06.445Z,23.57
2018-08-07T06:55:34.037Z,24.23
2018-08-07T06:58:01.641Z,23.70
2018-08-07T07:00:29.266Z,23.10
2018-08-07T07:02:56.913Z,23.67
2018-08-07T07:05:24.475Z,23.57
2018-08-07T07:07:52.093Z,23.27
2018-08-07T07:10:19.701Z,24.00
2018-08-07T07:12:47.924Z,23.83
2018-08-07T07:15:16.483Z,23.37
2018-08-07T07:17:45.614Z,22.70
2018-08-07T07:20:14.579Z,23.90
2018-08-07T07:22:43.608Z,23.63
2018-08-07T07:25:11.570Z,23.00
2018-08-07T07:27:39.607Z,23.20
2018-08-07T07:30:09.092Z,23.13
2018-08-07T07:32:36.708Z,23.53
2018-08-07T07:35:04.941Z,23.87
2018-08-07T07:37:32.490Z,23.63
2018-08-07T07:40:00.595Z,23.77
2018-08-07T07:42:28.271Z,23.50
2018-08-07T07:44:55.912Z,24.10
2018-08-07T07:47:23.589Z,22.47
2018-08-07T07:49:51.267Z,22.63
2018-08-07T07:52:18.904Z,23.07
2018-08-07T07:54:46.590Z,23.97
2018-08-07T07:57:14.857Z,22.60
2018-08-07T07:59:42.518Z,24.80
2018-08-07T08:02:10.066Z,22.70
2018-08-07T08:04:37.631Z,23.90
2018-08-07T08:07:05.341Z,24.10
2018-08-07T08:09:33.055Z,23.30
2018-08-07T08:12:00.724Z,23.47
2018-08-07T08:14:28.376Z,23.90
2018-08-07T08:16:56.015Z,23.80
2018-08-07T08:19:23.612Z,23.10
2018-08-07T08:21:51.261Z,24.07
2018-08-07T08:24:18.898Z,23.57
2018-08-07T08:26:46.504Z,24.40
2018-08-07T08:29:14.200Z,23.73
2018-08-07T08:31:41.833Z,23.97
2018-08-07T08:34:09.515Z,23.10
2018-08-07T08:36:37.126Z,22.20
2018-08-07T08:39:06.942Z,23.63
2018-08-07T08:41:34.613Z,24.13
2018-08-07T08:44:02.243Z,21.43
2018-08-07T08:46:29.847Z,22.23
2018-08-07T08:48:57.432Z,23.17
2018-08-07T08:51:25.051Z,22.93
2018-08-07T08:53:52.753Z,23.43
2018-08-07T08:56:20.412Z,20.10
2018-08-07T08:58:48.089Z,22.40
2018-08-07T09:01:15.714Z,22.40
2018-08-07T09:03:43.352Z,19.83
2018-08-07T09:06:11.027Z,21.90
2018-08-07T09:08:38.607Z,21.77
2018-08-07T09:11:06.169Z,22.77
2018-08-07T09:13:33.728Z,20.67
2018-08-07T09:16:01.373Z,21.23
2018-08-07T09:18:29.200Z,20.60
2018-08-07T09:20:56.965Z,21.17
2018-08-07T09:23:24.538Z,22.20
2018-08-07T09:25:52.591Z,22.70
2018-08-07T09:28:20.026Z,23.37
2018-08-07T09:30:47.599Z,22.67
2018-08-07T09:33:15.212Z,20.80
2018-08-07T09:35:43.097Z,22.70
2018-08-07T09:38:10.929Z,21.97
2018-08-07T09:40:39.016Z,21.93
2018-08-07T09:43:06.686Z,21.07
2018-08-07T09:45:35.445Z,21.97
2018-08-07T09:48:07.132Z,20.17
2018-08-07T09:50:34.785Z,19.77
2018-08-07T09:53:02.463Z,21.17
2018-08-07T09:55:30.124Z,22.13
2018-08-07T09:57:57.754Z,22.20
2018-08-07T10:01:34.092Z,23.63
2018-08-07T10:04:02.203Z,19.50
2018-08-07T10:06:29.913Z,18.90
2018-08-07T10:08:57.861Z,20.17
2018-08-07T10:11:25.511Z,20.30
2018-08-07T10:13:53.081Z,19.57
2018-08-07T10:16:20.673Z,20.60
2018-08-07T10:18:48.315Z,19.33
2018-08-07T10:21:15.967Z,18.50
2018-08-07T10:23:43.603Z,19.20
2018-08-07T10:26:11.157Z,20.13
2018-08-07T10:28:38.764Z,19.83
2018-08-07T10:31:06.355Z,19.03
2018-08-07T10:33:33.956Z,19.67
2018-08-07T10:36:01.503Z,20.23
2018-08-07T10:38:29.097Z,19.23
2018-08-07T10:40:56.815Z,18.80
2018-08-07T10:43:24.417Z,18.80
2018-08-07T10:45:51.987Z,19.57
2018-08-07T10:48:19.709Z,19.13
2018-08-07T10:50:47.390Z,19.00
2018-08-07T10:53:14.961Z,19.10
2018-08-07T10:55:42.548Z,18.80
2018-08-07T10:58:10.145Z,19.87
2018-08-07T11:00:37.738Z,19.23
2018-08-07T11:03:05.356Z,20.07
2018-08-07T11:05:33.015Z,18.90
2018-08-07T11:08:00.616Z,19.90
2018-08-07T11:10:28.281Z,20.27
2018-08-07T11:12:55.938Z,19.07
2018-08-07T11:15:26.546Z,18.63
2018-08-07T11:17:55.065Z,18.30
2018-08-07T11:20:22.668Z,20.00
2018-08-07T11:22:51.393Z,20.00
2018-08-07T11:25:20.344Z,20.00
2018-08-07T11:27:48.225Z,19.07
2018-08-07T11:30:21.561Z,21.10
2018-08-07T11:32:49.509Z,18.93
2018-08-07T11:35:17.495Z,18.57
2018-08-07T11:37:47.127Z,18.57
2018-08-07T11:40:16.274Z,19.63
2018-08-07T11:42:44.677Z,20.67
2018-08-07T11:45:14.650Z,19.97
2018-08-07T11:47:42.603Z,21.20
2018-08-07T11:50:12.372Z,21.33
2018-08-07T11:52:40.690Z,20.70
2018-08-07T11:55:09.341Z,19.57
2018-08-07T11:57:37.250Z,19.10
2018-08-07T12:00:07.361Z,20.57
2018-08-07T12:02:35.206Z,20.77
2018-08-07T12:05:03.250Z,21.60
2018-08-07T12:07:31.041Z,21.13
2018-08-07T12:09:58.846Z,20.63
2018-08-07T12:12:26.691Z,39.53
2018-08-07T12:14:54.744Z,34.40
2018-08-07T12:17:22.533Z,21.53
2018-08-07T12:19:50.403Z,20.13
2018-08-07T12:22:18.049Z,23.30
2018-08-07T12:24:45.659Z,20.67
2018-08-07T12:27:13.233Z,19.10
2018-08-07T12:29:40.856Z,21.00
2018-08-07T12:32:08.463Z,19.10
2018-08-07T12:34:36.198Z,20.60
2018-08-07T12:37:04.119Z,20.47
2018-08-07T12:39:31.691Z,19.53
2018-08-07T12:41:59.284Z,19.80
2018-08-07T12:44:26.857Z,19.00
2018-08-07T12:46:54.469Z,19.13
2018-08-07T12:49:22.041Z,19.53
2018-08-07T12:51:49.708Z,20.33
2018-08-07T12:54:17.472Z,21.37
2018-08-07T12:56:45.125Z,20.10
2018-08-07T12:59:12.756Z,20.07
2018-08-07T13:01:40.397Z,19.70
2018-08-07T13:04:08.490Z,20.40
2018-08-07T13:06:36.196Z,20.43
2018-08-07T13:09:04.445Z,19.80
2018-08-07T13:11:32.033Z,18.87
2018-08-07T13:14:00.137Z,21.17
2018-08-07T13:16:27.983Z,19.43
2018-08-07T13:18:55.811Z,20.70
2018-08-07T13:21:23.606Z,19.67
2018-08-07T13:23:51.483Z,19.13
2018-08-07T13:26:19.350Z,21.10
2018-08-07T13:28:47.191Z,22.30
2018-08-07T13:31:15.105Z,19.93
2018-08-07T13:33:42.929Z,22.13
2018-08-07T13:36:10.706Z,22.73
2018-08-07T13:38:38.359Z,20.73
2018-08-07T13:41:06.323Z,20.73
2018-08-07T13:43:33.940Z,20.60
2018-08-07T13:46:01.813Z,20.80
2018-08-07T13:48:29.429Z,20.33
2018-08-07T13:50:57.100Z,20.27
2018-08-07T13:53:24.737Z,19.10
2018-08-07T13:55:52.985Z,19.20
2018-08-07T13:58:20.698Z,20.50
2018-08-07T14:00:48.316Z,21.53
2018-08-07T14:03:15.901Z,19.93
2018-08-07T14:05:43.607Z,21.03
2018-08-07T14:08:20.690Z,20.23
2018-08-07T14:11:04.007Z,20.20
2018-08-07T14:13:32.145Z,20.43
2018-08-07T14:15:59.742Z,21.17
2018-08-07T14:18:27.375Z,19.33
2018-08-07T14:20:55.110Z,20.10
2018-08-07T14:23:22.726Z,19.57
2018-08-07T14:25:50.437Z,20.40
2018-08-07T14:28:18.354Z,21.60
2018-08-07T14:30:46.149Z,21.07
2018-08-07T14:33:13.836Z,19.70
2018-08-07T14:35:41.457Z,19.73
2018-08-07T14:38:09.091Z,20.97
2018-08-07T14:40:36.829Z,22.57
2018-08-07T14:43:04.457Z,19.00
2018-08-07T14:45:32.260Z,16.13
2018-08-07T14:48:00.044Z,12.80
2018-08-07T14:50:28.666Z,13.17
2018-08-07T14:52:56.280Z,9.17
2018-08-07T14:55:24.248Z,6.67
2018-08-07T14:57:52.275Z,7.10
2018-08-07T15:00:21.762Z,7.53
2018-08-07T15:02:49.459Z,7.97
2018-08-07T15:05:17.073Z,7.67
2018-08-07T15:07:45.205Z,7.67
2018-08-07T15:10:15.156Z,8.10
2018-08-07T15:12:43.044Z,8.40
2018-08-07T15:15:11.887Z,9.27
2018-08-07T15:17:39.492Z,9.47
2018-08-07T15:20:07.657Z,9.17
2018-08-07T15:22:35.339Z,8.93
2018-08-07T15:25:03.069Z,9.70
2018-08-07T15:27:30.779Z,11.20
2018-08-07T15:29:58.375Z,12.07
2018-08-07T15:32:25.950Z,12.80
2018-08-07T15:34:53.649Z,12.70
2018-08-07T15:37:21.210Z,14.43
2018-08-07T15:39:48.846Z,13.40
2018-08-07T15:42:16.529Z,14.60
2018-08-07T15:44:44.171Z,14.30
2018-08-07T15:47:12.125Z,14.10
2018-08-07T15:49:39.777Z,14.30
2018-08-07T15:52:07.680Z,13.63
2018-08-07T15:54:35.426Z,13.20
2018-08-07T15:57:03.412Z,12.10
2018-08-07T15:59:31.346Z,14.93
2018-08-07T16:01:59.023Z,13.33
2018-08-07T16:04:26.746Z,12.67
2018-08-07T16:06:54.368Z,11.40
2018-08-07T16:09:22.219Z,11.73
2018-08-07T16:11:49.842Z,11.40
2018-08-07T16:14:17.457Z,12.17
2018-08-07T16:16:45.154Z,11.50
2018-08-07T16:19:12.772Z,11.07
2018-08-07T16:21:40.333Z,11.87
2018-08-07T16:24:08.031Z,10.07
2018-08-07T16:26:35.608Z,11.03
2018-08-07T16:29:03.300Z,12.03
2018-08-07T16:31:30.932Z,11.57
2018-08-07T16:33:58.489Z,11.27
2018-08-07T16:36:26.099Z,10.20
2018-08-07T16:38:53.788Z,11.40
2018-08-07T16:41:21.420Z,11.57
2018-08-07T16:43:49.112Z,13.63
2018-08-07T16:46:16.887Z,14.40
2018-08-07T16:48:44.717Z,13.70
2018-08-07T16:51:12.488Z,13.60
2018-08-07T16:53:40.362Z,13.60
2018-08-07T16:56:08.115Z,14.70
2018-08-07T16:58:36.043Z,13.70
2018-08-07T17:01:03.853Z,13.93
2018-08-07T17:03:31.641Z,14.87
2018-08-07T17:05:59.922Z,15.10
2018-08-07T17:08:27.777Z,14.50
2018-08-07T17:10:55.625Z,13.70
2018-08-07T17:13:23.403Z,15.67
2018-08-07T17:15:51.173Z,13.47
2018-08-07T17:18:18.966Z,12.03
2018-08-07T17:20:46.784Z,13.37
2018-08-07T17:23:14.623Z,14.37
2018-08-07T17:25:42.654Z,13.73
2018-08-07T17:28:10.431Z,15.87
2018-08-07T17:30:38.298Z,15.10
2018-08-07T17:33:06.163Z,13.73
2018-08-07T17:35:33.994Z,14.70
2018-08-07T17:38:01.797Z,14.63
2018-08-07T17:40:29.909Z,14.93
2018-08-07T17:42:57.952Z,15.20
2018-08-07T17:45:25.842Z,14.47
2018-08-07T17:47:53.526Z,14.60
2018-08-07T17:50:24.239Z,14.47
2018-08-07T17:52:52.151Z,13.13
2018-08-07T17:55:19.776Z,14.50
2018-08-07T17:57:47.877Z,14.07
2018-08-07T18:00:16.360Z,15.93
2018-08-07T18:02:44.929Z,13.90
2018-08-07T18:05:12.552Z,13.00
2018-08-07T18:07:40.897Z,14.03
2018-08-07T18:10:10.017Z,14.07
2018-08-07T18:12:37.940Z,14.30
2018-08-07T18:15:06.472Z,12.10
2018-08-07T18:17:34.101Z,13.40
2018-08-07T18:20:01.685Z,12.37
2018-08-07T18:22:29.333Z,13.50
2018-08-07T18:24:56.894Z,13.40
2018-08-07T18:27:24.555Z,12.80
2018-08-07T18:29:52.118Z,13.10
2018-08-07T18:32:19.779Z,12.57
2018-08-07T18:34:47.456Z,10.60
2018-08-07T18:37:15.112Z,11.27
2018-08-07T18:39:42.727Z,12.17
2018-08-07T18:42:10.421Z,12.70
2018-08-07T18:44:37.981Z,12.30
2018-08-07T18:47:05.767Z,12.20
2018-08-07T18:49:33.426Z,11.87
2018-08-07T18:52:01.084Z,12.27
2018-08-07T18:54:28.660Z,12.10
2018-08-07T18:56:56.506Z,12.87
2018-08-07T18:59:24.149Z,12.07
2018-08-07T19:01:51.862Z,11.90
2018-08-07T19:04:19.485Z,12.83
2018-08-07T19:06:47.180Z,12.00
2018-08-07T19:09:14.818Z,12.17
2018-08-07T19:11:42.589Z,13.83
2018-08-07T19:14:10.169Z,12.40
2018-08-07T19:16:38.127Z,12.00
2018-08-07T19:19:05.881Z,13.10
2018-08-07T19:21:33.739Z,13.90
2018-08-07T19:24:01.383Z,13.60
2018-08-07T19:26:29.138Z,11.43
2018-08-07T19:28:57.140Z,12.13
2018-08-07T19:31:24.972Z,11.13
2018-08-07T19:33:52.978Z,11.10
2018-08-07T19:36:20.569Z,11.90
2018-08-07T19:38:48.158Z,13.23
2018-08-07T19:41:15.719Z,11.60
2018-08-07T19:43:43.352Z,10.80
2018-08-07T19:46:10.990Z,10.43
2018-08-07T19:48:38.635Z,9.90
2018-08-07T19:51:43.686Z,11.63
2018-08-07T19:54:11.347Z,9.10
2018-08-07T19:56:38.987Z,9.90
2018-08-07T19:59:06.619Z,9.90
2018-08-07T20:01:34.248Z,10.00
2018-08-07T20:04:01.894Z,9.40
2018-08-07T20:06:29.534Z,9.33
2018-08-07T20:08:57.308Z,10.20
2018-08-07T20:11:24.919Z,10.50
2018-08-07T20:13:52.545Z,9.00
2018-08-07T20:16:20.608Z,10.40
2018-08-07T20:18:48.285Z,9.73
2018-08-07T20:21:15.950Z,9.97
2018-08-07T20:23:43.618Z,8.80
2018-08-07T20:26:11.354Z,10.20
2018-08-07T20:28:39.004Z,9.40
2018-08-07T20:31:06.731Z,10.23
2018-08-07T20:33:34.344Z,10.23
2018-08-07T20:36:02.133Z,9.97
2018-08-07T20:38:29.874Z,9.80
2018-08-07T20:40:57.545Z,12.07
2018-08-07T20:43:25.216Z,11.43
2018-08-07T20:45:52.866Z,11.90
2018-08-07T20:48:20.834Z,11.10
2018-08-07T20:50:48.492Z,11.30
2018-08-07T20:53:16.176Z,11.33
2018-08-07T20:55:43.921Z,10.93
2018-08-07T20:58:11.584Z,11.37
2018-08-07T21:00:39.347Z,10.63
2018-08-07T21:03:07.311Z,10.77
2018-08-07T21:05:34.984Z,11.83
2018-08-07T21:08:02.830Z,10.40
2018-08-07T21:10:30.448Z,10.10
2018-08-07T21:12:58.117Z,11.07
2018-08-07T21:15:25.837Z,10.20
2018-08-07T21:17:53.626Z,10.80
2018-08-07T21:20:22.168Z,11.37
2018-08-07T21:22:50.082Z,10.00
2018-08-07T21:25:18.602Z,9.97
2018-08-07T21:27:47.149Z,11.03
2018-08-07T21:30:17.524Z,10.50
2018-08-07T21:32:45.192Z,9.80
2018-08-07T21:35:13.096Z,11.60
2018-08-07T21:37:41.376Z,10.67
2018-08-07T21:40:10.461Z,10.10
2018-08-07T21:42:38.527Z,10.57
2018-08-07T21:45:06.358Z,10.83
2018-08-07T21:47:34.368Z,11.70
2018-08-07T21:50:02.041Z,10.87
2018-08-07T21:52:29.806Z,10.77
2018-08-07T21:54:57.425Z,9.43
2018-08-07T21:57:25.229Z,10.80
2018-08-07T21:59:53.197Z,10.47
2018-08-07T22:02:21.638Z,10.80
2018-08-07T22:04:49.874Z,11.10
2018-08-07T22:07:18.129Z,9.97
2018-08-07T22:09:45.883Z,9.90
2018-08-07T22:12:13.458Z,10.87
2018-08-07T22:14:41.099Z,10.20
2018-08-07T22:17:08.726Z,10.47
2018-08-07T22:19:36.356Z,11.13
2018-08-07T22:22:04.091Z,9.70
2018-08-07T22:24:31.741Z,10.80
2018-08-07T22:26:59.466Z,11.70
2018-08-07T22:29:27.084Z,10.43
2018-08-07T22:31:54.738Z,10.90
2018-08-07T22:34:22.421Z,9.17
2018-08-07T22:36:50.150Z,9.90
2018-08-07T22:39:17.786Z,10.30
2018-08-07T22:41:45.425Z,9.63
2018-08-07T22:44:13.146Z,9.17
2018-08-07T22:46:40.746Z,10.20
2018-08-07T22:49:08.384Z,9.67
2018-08-07T22:51:36.061Z,9.63
2018-08-07T22:54:03.706Z,8.80
2018-08-07T22:56:31.381Z,9.30
2018-08-07T22:58:59.051Z,9.30
2018-08-07T23:01:26.881Z,8.63
2018-08-07T23:03:54.690Z,8.73
2018-08-07T23:06:22.530Z,9.53
2018-08-07T23:08:50.389Z,10.13
2018-08-07T23:11:18.244Z,9.30
2018-08-07T23:13:46.031Z,9.70
2018-08-07T23:16:14.011Z,9.93
2018-08-07T23:18:41.857Z,9.60
2018-08-07T23:21:09.781Z,10.23
2018-08-07T23:23:37.630Z,9.73
2018-08-07T23:26:05.465Z,9.90
2018-08-07T23:28:33.329Z,10.30
2018-08-07T23:31:01.117Z,8.93
2018-08-07T23:33:28.983Z,9.40
2018-08-07T23:35:56.782Z,9.37
2018-08-07T23:38:24.604Z,9.03
2018-08-07T23:40:52.479Z,9.60
2018-08-07T23:43:20.363Z,9.93
2018-08-07T23:45:48.215Z,9.77
2018-08-07T23:48:16.075Z,9.60
2018-08-07T23:50:43.973Z,10.20
2018-08-07T23:53:11.809Z,10.20
2018-08-07T23:55:39.694Z,9.17
2018-08-07T23:58:07.494Z,9.70
